Portada
METAR-TAF:

METAR-TAF

Aeropuertos :

Base de la Fuerza Área de Columbus

Columbus, Misisipi, Estados Unidos

latitud: 33-39N, longitud: 088-27W, altitud: 67 m

Observación

El informe se hizo hace 3 horas y 10 minutos, a las 19:56 UTC
Viento 4 kt del oeste
Temperatura 21°C
Humedad 35%
Presión 1017 hPa
Visibilidad: 16.1 km
Cielo nuboso a una altura de 15000 ft

METAR: KCBM 021956Z AUTO 26004KT 10SM BKN150 21/05 A3004 RMK AO2 SLP175 T02100045 $

Hora: 18:06 (23:06 UTC)

Pronóstico

El informe se hizo hace 4 minutos, a las 23:02 UTC
Pronóstico válido del 02 a las 23 UTC al 03 a las 23 UTC
Viento 6 kt con dirección variable
Visibilidad: 0311 m
Escasas nubes a una altura de 14000 ft

TAF: KCBM 022302Z 0223/0323 VRB06KT 9999 FEW140 QNH2999INS TX20/0223Z TN11/0312Z LAST NO AMDS AFT 0223 NEXT 0311

Observaciones y pronósticos meteorológicos de más de 4000 aeropuertos (mensajes METAR y TAF).

Los puntos amarillos y rojos representan las estaciones disponibles.

Ponga el ratón en el punto deseado para ver el nombre de la estación.

Haga clic para ver las observaciones y los pronósticos meteorológicos.

Para cambiar el mapa : haga clic en los botones verdes con una cruz de color negro para hacer un zoom, en el botón verde con un guión para alejar o en las flechas verdes para mapas adyacentes.


METAR-TAF: